Aérodrome :
LOGIN :

S'inscrire | Disclaimer

   EN    FR    IT 

 










Légende :    VFR   VFR Marginal   IFR   IFR Intensif   IFR Très Intensif
Visi : 
Plafond : 
>= 8 km
>= 3000ft
5 à 8 km
1000 à 3000 ft
1500m à 5 km
500 à 1000 ft
800 à 1500m
200 à 500 ft
< 800m
< 200 ft
Symboles :   Orages  Brouillard  Fortes neiges  Fortes précipitations  Vent > 20 kt
SIGMETs :   Divers  Orages  Givrage  Turbulence  Onde Orograph.  Cendres Volcan.






- Altitude de l'aérodrome : 12 ft
- Code IATA : BCN


LEBL - Barcelone

DERNIER METAR :
  • 210600Z 32010KT CAVOK 07/04 Q1028 NOSIG

METARs EXPIRÉS :
  • 210530Z 32009KT CAVOK 07/04 Q1028 NOSIG
  • 210500Z 31011KT CAVOK 07/04 Q1028 NOSIG
  • 210430Z 27004KT 240V310 9999 FEW025 07/04 Q1028 NOSIG
  • 210400Z 31012KT 9999 FEW025 07/05 Q1028 NOSIG
  • 210330Z 31010KT 9000 FEW025 07/05 Q1028 NOSIG

TAF TAF LEBL
Valide du 21 à 06h jusqu'au 22 à 06h UTC


210500Z 2106/2206 33006KT 9999 FEW025 TX17/2113Z TN07/2106Z
BECMG 2110/2112 25012KT



MET'MAP, la Météo Aéronautique d'un coup d'oeil ! - Copyright ORBIFLY Décembre 2007 - Disclaimer

ORBIFLY MET'MAP TEAM :

Programmation & Développement : Alexandra Zaïnal
Sur une idée originale de : Baudouin d'Aumeries
Assistance à la programmation : Marc-Olivier Méhu
Soutien technique & logistique : Manuel Goepfert

Contact : metmap@orbifly.com




SOURCES & CREDITS :

   NOAA